Terminal Aerodrome Forecast
Issued by NWS Wilmington, OH

Current Version | Previous Version | Text Only | Print | Product List | Glossary Off
Versions: 1 2 3 4 5 6 7 8 9 10 11 12 13 14 15 16 17 18 19 20 21 22 23 24 25 26 27 28 29 30 31 32

000
FTUS41 KILN 152300
TAFCVG
TAF
KCVG 152339Z 1600/1706 09014KT P6SM -RA VCSH OVC035
     FM160200 10012KT P6SM VCSH OVC025
     FM160600 16010KT P6SM -SHRA OVC018
     FM161500 17010KT P6SM VCSH OVC015=

USA.gov is the U.S. government's official web portal to all federal, state and local government web resources and services.